Terminal Aerodrome Forecast
Issued by NWS Wilmington, NC

Home | Current Version | Previous Version | Text Only | Print | Product List | Glossary On
Versions: 1 2 3 4 5 6 7 8 9 10 11 12 13 14 15 16 17
000
FTUS42 KILM 270500
TAFLBT
TAF
KLBT 270537Z 2706/2806 32010G16KT P6SM BKN035
     FM271200 33011G18KT P6SM SCT035 SCT100
     FM271700 30010G18KT P6SM SKC
     FM280000 VRB03KT P6SM SKC=

USA.gov is the U.S. government's official web portal to all federal, state and local government web resources and services.